Time;durP1;ratioP1;P1;durP2;ratioP2;P2;SDS_P1;SDS_P2;PMS_P1;PMS_P2;Temp;Humidity;BMP_temperature;BMP_pressure;BME280_temperature;BME280_humidity;BME280_pressure;Samples;Min_cycle;Max_cycle;Signal;HPM_P1;HPM_P2
2023/11/08 00:01:29;;;;;;;37.03;24.35;;;;;;;;;;6279887;28;20703;-63
2023/11/08 00:04:31;;;;;;;35.75;22.58;;;;;;;;;;6282906;28;20379;-62
2023/11/08 00:07:33;;;;;;;20.98;13.70;;;;;;;;;;6283464;28;20039;-62
2023/11/08 00:10:35;;;;;;;26.67;15.65;;;;;;;;;;6284238;28;20803;-63
2023/11/08 00:13:39;;;;;;;28.48;16.33;;;;;;;;;;6276457;28;20131;-63
2023/11/08 00:16:42;;;;;;;16.38;14.43;;;;;;;;;;6252946;28;20045;-63
2023/11/08 00:19:44;;;;;;;19.52;14.73;;;;;;;;;;6266920;28;20052;-63
2023/11/08 00:22:47;;;;;;;20.23;14.77;;;;;;;;;;6275804;28;20048;-62
2023/11/08 00:25:49;;;;;;;21.75;10.77;;;;;;;;;;6267114;28;20472;-63
2023/11/08 00:28:51;;;;;;;19.48;14.43;;;;;;;;;;6260261;28;20044;-63
2023/11/08 00:31:53;;;;;;;18.90;15.00;;;;;;;;;;6284991;28;20071;-63
2023/11/08 00:34:55;;;;;;;21.08;11.57;;;;;;;;;;6259534;28;20137;-63
2023/11/08 00:37:58;;;;;;;16.17;12.25;;;;;;;;;;6263960;28;20541;-63
2023/11/08 00:41:03;;;;;;;18.88;12.60;;;;;;;;;;6260855;28;20194;-63
2023/11/08 00:44:09;;;;;;;15.70;12.77;;;;;;;;;;6261879;28;20924;-63
2023/11/08 00:47:11;;;;;;;21.33;11.52;;;;;;;;;;6266918;28;20048;-63
2023/11/08 00:50:13;;;;;;;19.85;11.63;;;;;;;;;;6278526;28;20186;-63
2023/11/08 00:53:15;;;;;;;17.77;9.90;;;;;;;;;;6286301;28;20064;-62
2023/11/08 00:56:17;;;;;;;15.85;10.80;;;;;;;;;;6269450;28;20071;-63
2023/11/08 00:59:19;;;;;;;15.07;11.88;;;;;;;;;;6277947;28;20056;-62
2023/11/08 01:02:21;;;;;;;14.63;10.45;;;;;;;;;;6286779;28;20552;-62
2023/11/08 01:05:23;;;;;;;17.02;10.75;;;;;;;;;;6289556;28;20045;-63
2023/11/08 01:08:26;;;;;;;13.27;9.68;;;;;;;;;;6268626;28;20040;-63
2023/11/08 01:11:28;;;;;;;11.93;9.95;;;;;;;;;;6284118;28;20048;-63
2023/11/08 01:14:30;;;;;;;9.05;5.65;;;;;;;;;;6261453;28;20568;-62
2023/11/08 01:17:32;;;;;;;16.33;12.48;;;;;;;;;;6283918;28;20529;-62
2023/11/08 01:20:34;;;;;;;13.15;9.93;;;;;;;;;;6282693;28;20055;-63
2023/11/08 01:23:38;;;;;;;9.43;5.47;;;;;;;;;;6269065;28;20761;-62
2023/11/08 01:26:41;;;;;;;13.95;8.85;;;;;;;;;;6280950;28;20040;-64
2023/11/08 01:29:43;;;;;;;14.18;7.28;;;;;;;;;;6279406;28;20445;-63
2023/11/08 01:32:45;;;;;;;14.82;7.05;;;;;;;;;;6261383;28;20486;-63
2023/11/08 01:35:47;;;;;;;12.00;8.07;;;;;;;;;;6283541;28;20049;-62
2023/11/08 01:38:49;;;;;;;10.93;8.88;;;;;;;;;;6283296;28;20045;-64
2023/11/08 01:41:51;;;;;;;8.15;4.13;;;;;;;;;;6287478;28;20559;-63
2023/11/08 01:44:53;;;;;;;13.80;9.73;;;;;;;;;;6271657;28;20048;-63
2023/11/08 01:47:55;;;;;;;11.82;8.90;;;;;;;;;;6276587;28;20052;-63
2023/11/08 01:50:58;;;;;;;18.73;14.90;;;;;;;;;;6286408;28;20620;-63
2023/11/08 01:54:00;;;;;;;15.10;10.27;;;;;;;;;;6243750;28;20101;-63
2023/11/08 01:57:03;;;;;;;13.63;10.50;;;;;;;;;;6279381;28;20128;-63
2023/11/08 02:00:07;;;;;;;20.85;14.88;;;;;;;;;;6264377;28;20581;-62
2023/11/08 02:03:17;;;;;;;22.02;14.32;;;;;;;;;;6276203;28;20043;-63
2023/11/08 02:06:19;;;;;;;19.80;14.30;;;;;;;;;;6267532;28;20055;-63
2023/11/08 02:09:21;;;;;;;22.17;13.73;;;;;;;;;;6265478;28;20075;-63
2023/11/08 02:12:23;;;;;;;18.70;14.32;;;;;;;;;;6277736;28;20052;-62
2023/11/08 02:15:27;;;;;;;20.27;14.00;;;;;;;;;;6262215;28;20055;-63
2023/11/08 02:18:34;;;;;;;18.52;12.23;;;;;;;;;;6272005;28;20040;-63
2023/11/08 02:21:37;;;;;;;19.33;14.55;;;;;;;;;;6276824;28;20121;-63
2023/11/08 02:24:39;;;;;;;15.07;8.95;;;;;;;;;;6252059;28;20501;-63
2023/11/08 02:27:45;;;;;;;15.50;12.07;;;;;;;;;;6286000;28;20080;-64
2023/11/08 02:30:54;;;;;;;17.98;11.80;;;;;;;;;;6264331;28;20056;-64
2023/11/08 02:33:57;;;;;;;18.65;11.98;;;;;;;;;;6261865;28;20048;-64
2023/11/08 02:36:59;;;;;;;14.70;11.93;;;;;;;;;;6265290;28;20056;-63
2023/11/08 02:40:03;;;;;;;22.52;15.60;;;;;;;;;;6258944;28;20151;-63
2023/11/08 02:43:05;;;;;;;20.92;15.23;;;;;;;;;;6279895;28;20048;-64
2023/11/08 02:46:07;;;;;;;17.42;12.55;;;;;;;;;;6286836;28;20056;-64
2023/11/08 02:49:11;;;;;;;17.35;12.45;;;;;;;;;;6258563;28;20036;-64
2023/11/08 02:52:13;;;;;;;17.58;9.38;;;;;;;;;;6269047;28;20414;-63
2023/11/08 02:55:16;;;;;;;20.05;12.77;;;;;;;;;;6283946;28;20182;-63
2023/11/08 02:58:18;;;;;;;13.27;11.88;;;;;;;;;;6275686;28;20047;-64
2023/11/08 03:01:23;;;;;;;15.07;10.23;;;;;;;;;;6288402;28;20047;-64
2023/11/08 03:04:25;;;;;;;14.80;11.40;;;;;;;;;;6272746;28;20056;-63
2023/11/08 03:07:27;;;;;;;16.42;12.50;;;;;;;;;;6275952;28;20044;-63
2023/11/08 03:10:30;;;;;;;16.55;12.90;;;;;;;;;;6285552;28;20048;-62
2023/11/08 03:13:32;;;;;;;14.10;10.77;;;;;;;;;;6282968;28;20063;-63
2023/11/08 03:16:35;;;;;;;15.18;11.55;;;;;;;;;;6277290;28;20060;-63
2023/11/08 03:19:38;;;;;;;17.25;11.15;;;;;;;;;;6284330;28;20565;-63
2023/11/08 03:22:42;;;;;;;16.30;10.95;;;;;;;;;;6261293;28;20049;-64
2023/11/08 03:25:44;;;;;;;19.13;11.95;;;;;;;;;;6275015;28;20048;-62
2023/11/08 03:28:47;;;;;;;15.52;12.13;;;;;;;;;;6279694;28;20119;-64
2023/11/08 03:31:49;;;;;;;23.33;11.57;;;;;;;;;;6287676;28;20471;-62
2023/11/08 03:34:51;;;;;;;18.70;16.50;;;;;;;;;;6284566;28;20481;-63
2023/11/08 03:37:55;;;;;;;23.73;14.45;;;;;;;;;;6289304;28;20151;-64
2023/11/08 03:40:57;;;;;;;21.02;13.25;;;;;;;;;;6280205;28;20060;-64
2023/11/08 03:43:59;;;;;;;20.85;13.77;;;;;;;;;;6278534;28;20045;-63
2023/11/08 03:47:00;;;;;;;18.15;12.07;;;;;;;;;;6272094;28;20059;-64
2023/11/08 03:50:03;;;;;;;20.55;13.52;;;;;;;;;;6281320;28;20116;-63
2023/11/08 03:53:06;;;;;;;13.93;10.00;;;;;;;;;;6284401;28;20465;-64
2023/11/08 03:56:08;;;;;;;23.65;13.32;;;;;;;;;;6271260;28;20052;-64
2023/11/08 03:59:10;;;;;;;17.30;14.90;;;;;;;;;;6280717;28;20040;-64
2023/11/08 04:02:13;;;;;;;18.83;13.05;;;;;;;;;;6267337;28;20127;-64
2023/11/08 04:05:16;;;;;;;16.13;13.77;;;;;;;;;;6285523;28;20059;-64
2023/11/08 04:08:20;;;;;;;15.60;13.07;;;;;;;;;;6285039;28;20041;-65
2023/11/08 04:11:21;;;;;;;18.17;12.05;;;;;;;;;;6290182;28;20071;-65
2023/11/08 04:14:24;;;;;;;17.98;12.43;;;;;;;;;;6280850;28;20044;-65
2023/11/08 04:17:26;;;;;;;18.40;12.25;;;;;;;;;;6277759;28;20049;-65
2023/11/08 04:20:29;;;;;;;18.48;12.68;;;;;;;;;;6290262;28;20060;-65
2023/11/08 04:23:31;;;;;;;16.13;11.02;;;;;;;;;;6284619;28;20052;-65
2023/11/08 04:26:33;;;;;;;15.25;13.45;;;;;;;;;;6288451;28;20066;-64
2023/11/08 04:29:35;;;;;;;11.55;9.25;;;;;;;;;;6285737;28;20066;-64
2023/11/08 04:32:37;;;;;;;12.98;9.52;;;;;;;;;;6289405;28;20040;-64
2023/11/08 04:35:39;;;;;;;10.45;8.23;;;;;;;;;;6281125;28;20064;-65
2023/11/08 04:38:44;;;;;;;6.68;4.30;;;;;;;;;;6287222;28;20633;-65
2023/11/08 04:41:46;;;;;;;11.70;7.15;;;;;;;;;;6290247;28;20040;-65
2023/11/08 04:44:49;;;;;;;12.55;7.05;;;;;;;;;;6289650;28;20056;-65
2023/11/08 04:47:51;;;;;;;9.82;6.90;;;;;;;;;;6288008;28;20090;-64
2023/11/08 04:50:53;;;;;;;12.68;7.28;;;;;;;;;;6286742;28;20044;-65
2023/11/08 04:53:55;;;;;;;10.40;8.13;;;;;;;;;;6280820;28;20048;-65
2023/11/08 04:56:57;;;;;;;9.32;5.28;;;;;;;;;;6285546;28;20481;-64
2023/11/08 04:59:59;;;;;;;15.80;8.18;;;;;;;;;;6285191;28;20470;-64
2023/11/08 05:03:01;;;;;;;10.60;9.00;;;;;;;;;;6283101;28;20832;-65
2023/11/08 05:06:03;;;;;;;12.55;9.95;;;;;;;;;;6287831;28;20060;-64
2023/11/08 05:09:05;;;;;;;12.98;7.20;;;;;;;;;;6288939;28;20543;-64
2023/11/08 05:12:09;;;;;;;13.23;10.50;;;;;;;;;;6281483;28;20230;-64
2023/11/08 05:15:11;;;;;;;16.77;12.82;;;;;;;;;;6278388;28;20052;-64
2023/11/08 05:18:13;;;;;;;21.80;10.98;;;;;;;;;;6281576;28;20040;-65
2023/11/08 05:21:15;;;;;;;11.70;9.75;;;;;;;;;;6275409;28;20075;-64
2023/11/08 05:24:18;;;;;;;13.27;10.20;;;;;;;;;;6263325;28;20059;-65
2023/11/08 05:27:20;;;;;;;12.40;10.25;;;;;;;;;;6283239;28;20177;-64
2023/11/08 05:30:22;;;;;;;37.53;20.02;;;;;;;;;;6282865;28;20226;-64
2023/11/08 05:33:24;;;;;;;29.25;19.52;;;;;;;;;;6279720;28;20049;-65
2023/11/08 05:36:26;;;;;;;20.50;13.18;;;;;;;;;;6283466;28;20530;-65
2023/11/08 05:39:28;;;;;;;17.48;11.07;;;;;;;;;;6263346;28;20044;-64
2023/11/08 05:42:30;;;;;;;15.00;10.73;;;;;;;;;;6279544;28;20059;-65
2023/11/08 05:45:33;;;;;;;11.23;9.82;;;;;;;;;;6282317;28;20048;-64
2023/11/08 05:48:35;;;;;;;14.98;8.38;;;;;;;;;;6278058;28;20545;-64
2023/11/08 05:51:37;;;;;;;13.32;9.50;;;;;;;;;;6282396;28;20536;-63
2023/11/08 05:54:40;;;;;;;15.98;8.73;;;;;;;;;;6281904;28;20056;-64
2023/11/08 05:57:42;;;;;;;19.33;12.13;;;;;;;;;;6274050;28;20179;-64
2023/11/08 06:00:44;;;;;;;12.45;9.80;;;;;;;;;;6279788;28;21094;-64
2023/11/08 06:03:46;;;;;;;14.20;10.73;;;;;;;;;;6275171;28;20649;-64
2023/11/08 06:06:49;;;;;;;11.13;9.55;;;;;;;;;;6284605;28;20128;-64
2023/11/08 06:09:53;;;;;;;12.13;8.23;;;;;;;;;;6286250;28;20048;-64
2023/11/08 06:12:56;;;;;;;15.45;6.65;;;;;;;;;;6274619;28;20959;-64
2023/11/08 06:15:59;;;;;;;10.05;7.85;;;;;;;;;;6283825;28;20044;-64
2023/11/08 06:19:01;;;;;;;15.05;11.57;;;;;;;;;;6279229;28;20041;-64
2023/11/08 06:22:04;;;;;;;14.68;8.65;;;;;;;;;;6275900;28;20087;-64
2023/11/08 06:25:07;;;;;;;12.40;8.65;;;;;;;;;;6280384;28;20057;-64
2023/11/08 06:28:09;;;;;;;14.10;9.57;;;;;;;;;;6277989;28;20055;-64
2023/11/08 06:31:12;;;;;;;12.50;8.05;;;;;;;;;;6281265;28;20040;-65
2023/11/08 06:34:14;;;;;;;17.00;9.45;;;;;;;;;;6280837;28;20049;-64
2023/11/08 06:37:16;;;;;;;23.15;9.07;;;;;;;;;;6266249;28;20053;-64
2023/11/08 06:40:18;;;;;;;17.98;9.93;;;;;;;;;;6278827;28;20036;-64
2023/11/08 06:43:21;;;;;;;18.38;9.00;;;;;;;;;;6274157;28;20048;-63
2023/11/08 06:46:23;;;;;;;14.70;9.05;;;;;;;;;;6283050;28;20052;-64
2023/11/08 06:49:25;;;;;;;16.70;9.45;;;;;;;;;;6277158;28;20514;-64
2023/11/08 06:52:28;;;;;;;16.58;9.38;;;;;;;;;;6263932;28;20049;-64
2023/11/08 06:55:32;;;;;;;12.50;9.48;;;;;;;;;;6277668;28;20109;-64
2023/11/08 06:58:40;;;;;;;13.93;7.68;;;;;;;;;;6281189;28;20121;-64
2023/11/08 07:01:42;;;;;;;12.63;8.75;;;;;;;;;;6280501;28;20044;-64
2023/11/08 07:04:44;;;;;;;13.18;6.18;;;;;;;;;;6283491;28;20484;-64
2023/11/08 07:07:46;;;;;;;15.38;7.07;;;;;;;;;;6280760;28;20526;-64
2023/11/08 07:10:50;;;;;;;16.58;11.30;;;;;;;;;;6281634;28;20044;-63
2023/11/08 07:13:52;;;;;;;15.85;11.55;;;;;;;;;;6285969;28;20139;-64
2023/11/08 07:16:55;;;;;;;14.55;11.00;;;;;;;;;;6283067;28;20096;-64
2023/11/08 07:19:59;;;;;;;14.32;8.40;;;;;;;;;;6274795;28;20379;-64
2023/11/08 07:23:02;;;;;;;10.57;4.80;;;;;;;;;;6281385;28;20044;-64
2023/11/08 07:26:04;;;;;;;21.30;12.73;;;;;;;;;;6277636;28;20534;-65
2023/11/08 07:29:07;;;;;;;23.55;14.27;;;;;;;;;;6284983;28;20406;-61
2023/11/08 07:32:12;;;;;;;15.52;10.15;;;;;;;;;;6279637;28;20133;-64
2023/11/08 07:35:14;;;;;;;14.55;8.25;;;;;;;;;;6283116;28;20591;-64
2023/11/08 07:38:16;;;;;;;15.38;8.48;;;;;;;;;;6286222;28;20060;-64
2023/11/08 07:41:19;;;;;;;18.13;12.88;;;;;;;;;;6280560;28;20037;-64
2023/11/08 07:44:21;;;;;;;21.42;11.90;;;;;;;;;;6281141;28;20072;-66
2023/11/08 07:47:23;;;;;;;20.05;8.55;;;;;;;;;;6270370;28;20422;-66
2023/11/08 07:50:25;;;;;;;19.15;14.85;;;;;;;;;;6290648;28;20044;-63
2023/11/08 07:53:27;;;;;;;16.95;10.48;;;;;;;;;;6286525;28;20049;-63
2023/11/08 07:56:29;;;;;;;14.45;7.65;;;;;;;;;;6275568;28;20432;-64
2023/11/08 07:59:31;;;;;;;18.88;13.35;;;;;;;;;;6286508;28;20406;-64
2023/11/08 08:02:34;;;;;;;25.27;17.17;;;;;;;;;;6279909;28;20087;-63
2023/11/08 08:05:36;;;;;;;25.23;15.65;;;;;;;;;;6283155;28;20060;-63
2023/11/08 08:08:38;;;;;;;14.32;8.55;;;;;;;;;;6287607;28;20047;-63
2023/11/08 08:11:44;;;;;;;14.70;9.68;;;;;;;;;;6258211;28;20059;-63
2023/11/08 08:14:46;;;;;;;15.55;11.52;;;;;;;;;;6287364;28;20044;-63
2023/11/08 08:17:49;;;;;;;15.15;9.75;;;;;;;;;;6280064;28;20048;-63
2023/11/08 08:20:51;;;;;;;16.77;8.32;;;;;;;;;;6280277;28;20182;-63
2023/11/08 08:23:54;;;;;;;14.00;8.23;;;;;;;;;;6281134;28;20207;-62
2023/11/08 08:27:07;;;;;;;14.90;5.22;;;;;;;;;;6267320;28;20526;-63
2023/11/08 08:30:11;;;;;;;14.70;9.45;;;;;;;;;;6284566;28;20041;-63
2023/11/08 08:33:13;;;;;;;22.17;12.73;;;;;;;;;;6289769;28;20051;-65
2023/11/08 08:36:16;;;;;;;16.05;9.30;;;;;;;;;;6271406;28;20182;-65
2023/11/08 08:39:20;;;;;;;15.82;5.95;;;;;;;;;;6285715;28;20557;-63
2023/11/08 08:42:25;;;;;;;38.50;24.45;;;;;;;;;;6286373;28;20056;-63
2023/11/08 08:45:27;;;;;;;16.05;12.02;;;;;;;;;;6276527;28;20091;-63
2023/11/08 08:48:29;;;;;;;36.25;16.65;;;;;;;;;;6270732;28;20399;-63
2023/11/08 08:51:32;;;;;;;32.45;19.95;;;;;;;;;;6273665;28;20053;-65
2023/11/08 08:54:34;;;;;;;18.75;9.48;;;;;;;;;;6283761;28;20040;-63
2023/11/08 08:57:37;;;;;;;16.40;14.65;;;;;;;;;;6280489;28;20051;-63
2023/11/08 09:00:40;;;;;;;14.52;11.15;;;;;;;;;;6288908;28;20048;-63
2023/11/08 09:03:42;;;;;;;18.75;10.60;;;;;;;;;;6278103;28;20056;-64
2023/11/08 09:06:44;;;;;;;14.93;10.57;;;;;;;;;;6282562;28;20044;-63
2023/11/08 09:09:46;;;;;;;31.80;16.50;;;;;;;;;;6276306;28;20036;-63
2023/11/08 09:12:49;;;;;;;17.85;7.90;;;;;;;;;;6287440;28;20570;-64
2023/11/08 09:15:52;;;;;;;21.33;15.20;;;;;;;;;;6286690;28;20182;-63
2023/11/08 09:18:54;;;;;;;18.75;10.98;;;;;;;;;;6277358;28;20044;-63
2023/11/08 09:21:56;;;;;;;199.98;115.00;;;;;;;;;;6293510;28;20059;-64
2023/11/08 09:36:49;;;;;;;22.85;10.00;;;;;;;;;;6345979;27;20628;-64
2023/11/08 09:39:54;;;;;;;15.60;8.85;;;;;;;;;;6324387;28;20177;-64
2023/11/08 09:42:57;;;;;;;16.52;8.43;;;;;;;;;;6329620;28;20052;-64
2023/11/08 09:45:59;;;;;;;15.82;8.88;;;;;;;;;;6330495;28;20040;-64
2023/11/08 09:49:01;;;;;;;18.25;9.43;;;;;;;;;;6346812;28;20047;-64
2023/11/08 09:52:04;;;;;;;18.70;9.30;;;;;;;;;;6330956;28;20075;-64
2023/11/08 09:55:06;;;;;;;25.85;15.43;;;;;;;;;;6330272;28;20058;-64
2023/11/08 09:58:10;;;;;;;21.30;19.02;;;;;;;;;;6330019;28;20067;-64
2023/11/08 10:01:17;;;;;;;19.08;13.02;;;;;;;;;;6329642;28;20040;-63
2023/11/08 10:04:21;;;;;;;21.63;12.95;;;;;;;;;;6330094;28;20077;-63
2023/11/08 10:07:33;;;;;;;22.17;9.38;;;;;;;;;;6318447;28;20048;-63
2023/11/08 10:10:37;;;;;;;19.10;10.10;;;;;;;;;;6327459;28;20122;-63
2023/11/08 10:13:51;;;;;;;15.10;9.43;;;;;;;;;;6331005;28;20044;-64
2023/11/08 10:16:53;;;;;;;25.15;12.80;;;;;;;;;;6330320;28;20055;-64
2023/11/08 10:20:00;;;;;;;21.88;10.45;;;;;;;;;;6330814;28;20098;-63
2023/11/08 10:23:05;;;;;;;16.63;8.88;;;;;;;;;;6328341;28;20058;-64
2023/11/08 10:26:15;;;;;;;16.85;9.52;;;;;;;;;;6329109;28;20039;-63
2023/11/08 10:29:24;;;;;;;17.42;8.63;;;;;;;;;;6330235;28;20108;-64
2023/11/08 10:32:26;;;;;;;18.65;9.77;;;;;;;;;;6303067;28;20044;-64
2023/11/08 10:35:35;;;;;;;17.73;8.63;;;;;;;;;;6325755;28;20047;-64
2023/11/08 10:38:39;;;;;;;17.40;9.10;;;;;;;;;;6312302;28;20055;-64
2023/11/08 10:41:43;;;;;;;21.90;9.02;;;;;;;;;;6307728;28;20085;-64
2023/11/08 10:44:45;;;;;;;23.85;11.60;;;;;;;;;;6313449;28;20036;-64
2023/11/08 10:47:47;;;;;;;28.10;11.57;;;;;;;;;;6308656;28;20048;-64
2023/11/08 10:50:50;;;;;;;24.20;10.68;;;;;;;;;;6304869;28;20052;-64
2023/11/08 10:53:56;;;;;;;19.58;9.57;;;;;;;;;;6312979;28;20052;-64
2023/11/08 10:57:00;;;;;;;16.98;7.07;;;;;;;;;;6313185;28;20972;-64
2023/11/08 11:00:04;;;;;;;21.88;9.95;;;;;;;;;;6294025;28;20059;-64
2023/11/08 11:03:12;;;;;;;20.00;8.63;;;;;;;;;;6309777;28;20172;-64
2023/11/08 11:06:14;;;;;;;22.13;12.77;;;;;;;;;;6312873;28;21788;-64
2023/11/08 11:09:17;;;;;;;18.00;9.38;;;;;;;;;;6298268;28;20582;-64
2023/11/08 11:12:25;;;;;;;20.25;10.65;;;;;;;;;;6301863;28;20155;-64
2023/11/08 11:15:46;;;;;;;18.73;10.73;;;;;;;;;;6308741;28;20048;-65
2023/11/08 11:18:53;;;;;;;23.67;10.70;;;;;;;;;;6308845;28;20044;-64
2023/11/08 11:21:57;;;;;;;13.48;7.50;;;;;;;;;;6312179;28;20067;-64
2023/11/08 11:25:01;;;;;;;17.33;9.07;;;;;;;;;;6291304;28;20040;-64
2023/11/08 11:28:06;;;;;;;14.88;6.53;;;;;;;;;;6310921;28;20052;-64
2023/11/08 11:31:30;;;;;;;21.80;7.70;;;;;;;;;;6311997;28;20047;-64
2023/11/08 11:34:32;;;;;;;12.95;6.28;;;;;;;;;;6309420;28;20075;-64
2023/11/08 11:37:34;;;;;;;6.70;4.40;;;;;;;;;;6313210;28;20139;-64
2023/11/08 11:40:43;;;;;;;10.88;6.18;;;;;;;;;;6311079;28;20059;-64
2023/11/08 11:43:46;;;;;;;7.95;4.68;;;;;;;;;;6311442;28;20051;-65
2023/11/08 11:46:51;;;;;;;4.70;2.78;;;;;;;;;;6310796;28;20048;-65
2023/11/08 11:49:59;;;;;;;6.80;3.47;;;;;;;;;;6310828;28;20054;-65
2023/11/08 11:53:01;;;;;;;7.07;3.47;;;;;;;;;;6310694;28;20059;-65
2023/11/08 11:56:05;;;;;;;4.53;2.90;;;;;;;;;;6310796;28;20055;-65
2023/11/08 11:59:08;;;;;;;6.97;2.22;;;;;;;;;;6310459;28;20717;-65
2023/11/08 12:02:11;;;;;;;3.63;2.92;;;;;;;;;;6307341;28;20048;-65
2023/11/08 12:05:13;;;;;;;4.43;3.17;;;;;;;;;;6292806;28;20120;-64
2023/11/08 12:08:15;;;;;;;3.78;2.10;;;;;;;;;;6311223;28;20771;-64
2023/11/08 12:11:19;;;;;;;4.10;2.33;;;;;;;;;;6307914;28;20051;-64
2023/11/08 12:14:27;;;;;;;4.75;2.60;;;;;;;;;;6311965;28;20044;-64
2023/11/08 12:17:30;;;;;;;4.60;3.22;;;;;;;;;;6311236;28;20067;-64
2023/11/08 12:20:40;;;;;;;7.70;4.30;;;;;;;;;;6311374;28;20164;-64
2023/11/08 12:23:46;;;;;;;8.98;4.65;;;;;;;;;;6309080;28;20048;-65
2023/11/08 12:26:48;;;;;;;6.28;3.70;;;;;;;;;;6307159;28;20051;-64
2023/11/08 12:29:50;;;;;;;4.72;2.03;;;;;;;;;;6307047;28;20048;-64
2023/11/08 12:32:54;;;;;;;7.57;4.68;;;;;;;;;;6307651;28;20063;-65
2023/11/08 12:35:58;;;;;;;5.43;2.95;;;;;;;;;;6291348;28;20051;-64
2023/11/08 12:39:00;;;;;;;4.95;3.35;;;;;;;;;;6304149;28;20502;-64
2023/11/08 12:42:13;;;;;;;5.25;4.07;;;;;;;;;;6304889;28;20055;-66
2023/11/08 12:45:32;;;;;;;4.78;2.35;;;;;;;;;;6295528;28;20525;-66
2023/11/08 12:48:56;;;;;;;3.83;3.00;;;;;;;;;;6306108;28;20048;-66
2023/11/08 12:52:03;;;;;;;6.07;2.67;;;;;;;;;;6305398;28;20048;-66
2023/11/08 12:55:06;;;;;;;3.67;2.75;;;;;;;;;;6307567;28;20411;-65
2023/11/08 12:58:27;;;;;;;3.25;2.50;;;;;;;;;;6300190;28;20040;-65
2023/11/08 13:01:29;;;;;;;6.75;3.80;;;;;;;;;;6294921;28;20090;-65
2023/11/08 13:04:32;;;;;;;4.10;2.00;;;;;;;;;;6306041;28;20036;-65
2023/11/08 13:07:35;;;;;;;4.15;1.80;;;;;;;;;;6299080;28;20044;-65
2023/11/08 13:10:37;;;;;;;4.82;3.17;;;;;;;;;;6308183;28;20082;-65
2023/11/08 13:13:39;;;;;;;3.58;2.22;;;;;;;;;;6307538;28;20052;-65
2023/11/08 13:16:41;;;;;;;5.53;3.22;;;;;;;;;;6308172;28;20044;-65
2023/11/08 13:19:43;;;;;;;7.95;4.93;;;;;;;;;;6304474;28;20048;-65
2023/11/08 13:22:45;;;;;;;6.35;3.55;;;;;;;;;;6310591;28;20592;-65
2023/11/08 13:25:48;;;;;;;6.07;3.22;;;;;;;;;;6308768;28;20059;-65
2023/11/08 13:28:50;;;;;;;8.95;3.67;;;;;;;;;;6309825;28;20522;-65
2023/11/08 13:31:53;;;;;;;3.30;2.15;;;;;;;;;;6306683;28;20051;-65
2023/11/08 13:34:56;;;;;;;7.38;3.15;;;;;;;;;;6308545;28;20105;-66
2023/11/08 13:37:59;;;;;;;4.80;2.58;;;;;;;;;;6308947;28;20052;-66
2023/11/08 13:41:03;;;;;;;5.63;3.10;;;;;;;;;;6302550;28;20063;-65
2023/11/08 13:44:06;;;;;;;6.63;2.80;;;;;;;;;;6307223;28;20047;-65
2023/11/08 13:47:08;;;;;;;5.78;3.42;;;;;;;;;;6306008;28;20520;-66
2023/11/08 13:50:12;;;;;;;6.95;3.92;;;;;;;;;;6309044;28;20224;-66
2023/11/08 13:53:14;;;;;;;9.07;5.70;;;;;;;;;;6309157;28;20044;-65
2023/11/08 13:56:16;;;;;;;6.68;4.82;;;;;;;;;;6303989;28;20056;-66
2023/11/08 13:59:21;;;;;;;6.72;5.15;;;;;;;;;;6305113;28;20051;-65
2023/11/08 14:02:25;;;;;;;7.03;5.22;;;;;;;;;;6297120;28;20032;-66
2023/11/08 14:05:28;;;;;;;8.18;4.60;;;;;;;;;;6307008;28;20701;-66
2023/11/08 14:08:30;;;;;;;5.72;3.88;;;;;;;;;;6308686;28;20036;-66
2023/11/08 14:11:33;;;;;;;7.38;3.50;;;;;;;;;;6291112;28;20051;-66
2023/11/08 14:14:35;;;;;;;6.43;5.05;;;;;;;;;;6314168;28;20052;-66
2023/11/08 14:17:37;;;;;;;9.55;5.82;;;;;;;;;;6302118;28;20454;-66
2023/11/08 14:20:39;;;;;;;8.00;4.95;;;;;;;;;;6313328;28;20138;-66
2023/11/08 14:23:41;;;;;;;6.93;5.05;;;;;;;;;;6317479;28;20051;-65
2023/11/08 14:26:43;;;;;;;10.88;5.55;;;;;;;;;;6315059;28;20071;-65
2023/11/08 14:29:46;;;;;;;9.82;5.40;;;;;;;;;;6312745;28;20048;-64
2023/11/08 14:32:49;;;;;;;11.95;6.10;;;;;;;;;;6310578;28;20055;-64
2023/11/08 14:35:52;;;;;;;15.07;7.43;;;;;;;;;;6305012;28;20100;-65
2023/11/08 14:38:54;;;;;;;11.30;5.72;;;;;;;;;;6305065;28;20044;-65
2023/11/08 14:41:56;;;;;;;11.45;6.28;;;;;;;;;;6308849;28;20095;-65
2023/11/08 14:44:58;;;;;;;8.80;5.28;;;;;;;;;;6310853;28;20426;-65
2023/11/08 14:48:01;;;;;;;25.38;11.98;;;;;;;;;;6310866;28;20047;-66
2023/11/08 14:51:05;;;;;;;14.68;8.48;;;;;;;;;;6311199;28;20044;-65
2023/11/08 14:54:07;;;;;;;12.63;6.93;;;;;;;;;;6300681;28;20078;-66
2023/11/08 14:57:15;;;;;;;9.65;6.15;;;;;;;;;;6302121;28;20028;-66
2023/11/08 15:00:17;;;;;;;11.55;7.30;;;;;;;;;;6312495;28;20048;-66
2023/11/08 15:03:19;;;;;;;10.65;6.82;;;;;;;;;;6312775;28;20043;-66
2023/11/08 15:06:22;;;;;;;27.05;16.58;;;;;;;;;;6312088;28;20051;-66
2023/11/08 15:09:26;;;;;;;6.53;4.18;;;;;;;;;;6307040;28;20044;-67
2023/11/08 15:12:48;;;;;;;6.82;4.38;;;;;;;;;;6276937;28;20055;-67
2023/11/08 15:15:51;;;;;;;8.43;5.57;;;;;;;;;;6311480;28;20051;-67
2023/11/08 15:18:53;;;;;;;9.82;5.40;;;;;;;;;;6303334;28;20048;-66
2023/11/08 15:21:55;;;;;;;10.48;7.45;;;;;;;;;;6312339;28;20419;-66
2023/11/08 15:24:57;;;;;;;8.95;4.88;;;;;;;;;;6316745;28;20059;-66
2023/11/08 15:27:59;;;;;;;8.52;5.85;;;;;;;;;;6307735;28;20118;-65
2023/11/08 15:31:01;;;;;;;7.93;4.38;;;;;;;;;;6294619;28;20229;-65
2023/11/08 15:34:03;;;;;;;9.02;4.35;;;;;;;;;;6307964;28;20115;-66
2023/11/08 15:37:05;;;;;;;10.70;5.25;;;;;;;;;;6312716;28;20040;-65
2023/11/08 15:40:08;;;;;;;8.88;5.40;;;;;;;;;;6309022;28;20055;-65
2023/11/08 15:43:10;;;;;;;12.90;7.30;;;;;;;;;;6313246;28;20124;-66
2023/11/08 15:46:13;;;;;;;12.68;6.55;;;;;;;;;;6311694;28;20048;-66
2023/11/08 15:49:16;;;;;;;8.25;4.88;;;;;;;;;;6311694;28;20051;-66
2023/11/08 15:52:20;;;;;;;12.40;7.55;;;;;;;;;;6312565;28;20048;-66
2023/11/08 15:55:22;;;;;;;13.40;9.60;;;;;;;;;;6308951;28;20040;-66
2023/11/08 15:58:25;;;;;;;15.52;10.65;;;;;;;;;;6308183;28;20062;-65
2023/11/08 16:01:27;;;;;;;15.98;11.73;;;;;;;;;;6310784;28;20052;-66
2023/11/08 16:04:29;;;;;;;17.55;13.00;;;;;;;;;;6310761;28;20040;-66
2023/11/08 16:07:32;;;;;;;16.67;12.65;;;;;;;;;;6312212;28;20127;-66
2023/11/08 16:10:34;;;;;;;18.02;11.88;;;;;;;;;;6310906;28;20040;-66
2023/11/08 16:13:37;;;;;;;12.93;11.60;;;;;;;;;;6311439;28;20063;-66
2023/11/08 16:16:42;;;;;;;13.00;8.38;;;;;;;;;;6308321;28;20090;-66
2023/11/08 16:19:49;;;;;;;12.38;9.15;;;;;;;;;;6306371;28;20048;-66
2023/11/08 16:22:52;;;;;;;13.38;9.82;;;;;;;;;;6307615;28;20044;-66
2023/11/08 16:25:54;;;;;;;14.20;9.65;;;;;;;;;;6314405;28;20168;-65
2023/11/08 16:28:56;;;;;;;17.90;13.90;;;;;;;;;;6315454;28;20118;-66
2023/11/08 16:31:58;;;;;;;15.27;11.13;;;;;;;;;;6320544;28;20049;-65
2023/11/08 16:35:21;;;;;;;17.05;13.02;;;;;;;;;;6301521;28;20533;-65
2023/11/08 16:38:23;;;;;;;17.23;13.10;;;;;;;;;;6308794;28;20043;-65
2023/11/08 16:41:25;;;;;;;14.10;8.15;;;;;;;;;;6308204;28;20475;-65
2023/11/08 16:44:28;;;;;;;10.88;8.25;;;;;;;;;;6308332;28;20044;-65
2023/11/08 16:47:31;;;;;;;11.18;6.00;;;;;;;;;;6309018;28;20047;-65
2023/11/08 16:50:33;;;;;;;11.50;8.00;;;;;;;;;;6308485;28;20044;-65
2023/11/08 16:53:35;;;;;;;11.13;6.57;;;;;;;;;;6309244;28;20048;-65
2023/11/08 16:56:41;;;;;;;13.50;8.93;;;;;;;;;;6309330;28;20055;-65
2023/11/08 16:59:43;;;;;;;11.63;7.72;;;;;;;;;;6303295;28;20060;-65
2023/11/08 17:02:45;;;;;;;15.05;10.10;;;;;;;;;;6308531;28;20063;-65
2023/11/08 17:05:49;;;;;;;12.95;8.25;;;;;;;;;;6310239;28;20682;-64
2023/11/08 17:08:51;;;;;;;12.38;8.25;;;;;;;;;;6311159;28;20100;-65
2023/11/08 17:11:53;;;;;;;13.93;9.35;;;;;;;;;;6310271;28;20051;-64
2023/11/08 17:14:55;;;;;;;48.08;23.42;;;;;;;;;;6310394;28;20040;-65
2023/11/08 17:17:57;;;;;;;27.10;14.93;;;;;;;;;;6310349;28;20127;-65
2023/11/08 17:20:59;;;;;;;16.67;7.95;;;;;;;;;;6292130;28;20059;-65
2023/11/08 17:24:02;;;;;;;12.25;8.45;;;;;;;;;;6310508;28;20044;-65
2023/11/08 17:27:04;;;;;;;23.20;16.45;;;;;;;;;;6293010;28;20141;-64
2023/11/08 17:30:07;;;;;;;32.65;21.30;;;;;;;;;;6310367;28;20051;-64
2023/11/08 17:33:12;;;;;;;20.52;13.93;;;;;;;;;;6310488;28;20139;-65
2023/11/08 17:36:14;;;;;;;16.50;12.13;;;;;;;;;;6305813;28;20044;-64
2023/11/08 17:39:16;;;;;;;19.45;14.93;;;;;;;;;;6296180;28;20044;-64
2023/11/08 17:42:18;;;;;;;18.88;13.15;;;;;;;;;;6310727;28;20063;-64
2023/11/08 17:45:21;;;;;;;18.02;10.30;;;;;;;;;;6310416;28;20044;-64
2023/11/08 17:48:24;;;;;;;28.40;21.35;;;;;;;;;;6314297;28;20134;-64
2023/11/08 17:51:26;;;;;;;27.85;18.38;;;;;;;;;;6315215;28;20143;-64
2023/11/08 17:54:28;;;;;;;24.55;18.90;;;;;;;;;;6314834;28;20063;-64
2023/11/08 17:57:30;;;;;;;25.92;18.73;;;;;;;;;;6315122;28;20043;-64
2023/11/08 18:00:33;;;;;;;24.98;18.60;;;;;;;;;;6315815;28;20048;-64
2023/11/08 18:03:39;;;;;;;26.50;18.42;;;;;;;;;;6314342;28;20427;-64
2023/11/08 18:06:42;;;;;;;22.90;16.88;;;;;;;;;;6314951;28;20526;-64
2023/11/08 18:09:44;;;;;;;29.15;20.02;;;;;;;;;;6314463;28;20193;-64